Time;durP1;ratioP1;P1;durP2;ratioP2;P2;SDS_P1;SDS_P2;PMS_P1;PMS_P2;Temp;Humidity;BMP_temperature;BMP_pressure;BME280_temperature;BME280_humidity;BME280_pressure;Samples;Min_cycle;Max_cycle;Signal;HPM_P1;HPM_P2
2022/07/05 00:00:19;;;;;;;3.65;2.03;;;18.40;59.20;;;;;;2346557;57;21155;-75
2022/07/05 00:02:47;;;;;;;4.30;1.73;;;18.40;59.30;;;;;;2345424;57;21065;-75
2022/07/05 00:05:14;;;;;;;5.70;1.55;;;18.40;59.50;;;;;;2346315;57;21060;-75
2022/07/05 00:07:42;;;;;;;5.25;1.62;;;18.40;59.30;;;;;;2346670;57;21105;-75
2022/07/05 00:10:10;;;;;;;3.37;2.05;;;18.40;59.40;;;;;;2346046;57;21092;-75
2022/07/05 00:12:37;;;;;;;2.45;1.50;;;18.40;59.50;;;;;;2346495;57;21116;-75
2022/07/05 00:15:06;;;;;;;3.40;1.40;;;18.40;59.50;;;;;;2346493;57;21543;-75
2022/07/05 00:17:33;;;;;;;3.45;1.50;;;18.40;59.50;;;;;;2345504;57;21068;-75
2022/07/05 00:20:01;;;;;;;2.60;1.70;;;18.30;59.50;;;;;;2346975;57;21061;-75
2022/07/05 00:22:28;;;;;;;4.50;1.70;;;18.40;59.60;;;;;;2346853;57;21057;-75
2022/07/05 00:24:56;;;;;;;3.05;1.98;;;18.40;59.70;;;;;;2345872;57;21179;-74
2022/07/05 00:27:24;;;;;;;4.97;1.83;;;18.40;59.70;;;;;;2345984;57;21049;-75
2022/07/05 00:29:51;;;;;;;9.52;2.05;;;18.40;59.70;;;;;;2346765;57;21566;-74
2022/07/05 00:32:19;;;;;;;3.80;2.15;;;18.40;59.70;;;;;;2345431;57;21113;-74
2022/07/05 00:34:46;;;;;;;3.83;1.73;;;18.30;59.70;;;;;;2345299;57;21607;-75
2022/07/05 00:37:14;;;;;;;8.38;1.95;;;18.30;59.70;;;;;;2345003;57;21132;-74
2022/07/05 00:39:41;;;;;;;3.60;1.90;;;18.30;59.70;;;;;;2345613;57;21060;-74
2022/07/05 00:42:09;;;;;;;3.05;1.60;;;18.30;59.70;;;;;;2345457;57;21168;-74
2022/07/05 00:44:39;;;;;;;3.10;1.80;;;18.30;59.80;;;;;;2345723;57;21050;-74
2022/07/05 00:47:08;;;;;;;4.45;1.92;;;18.20;59.60;;;;;;2344982;57;21045;-74
2022/07/05 00:49:37;;;;;;;4.90;1.50;;;18.20;59.70;;;;;;2345586;57;21543;-74
2022/07/05 00:52:05;;;;;;;5.20;2.28;;;18.20;59.80;;;;;;2345672;57;22117;-75
2022/07/05 00:54:35;;;;;;;2.53;1.67;;;18.20;59.90;;;;;;2346290;57;21843;-75
2022/07/05 00:57:04;;;;;;;4.37;1.95;;;18.20;59.90;;;;;;2345276;57;21041;-75
2022/07/05 00:59:32;;;;;;;4.18;2.35;;;18.20;60.00;;;;;;2345782;57;21136;-74
2022/07/05 01:01:59;;;;;;;3.53;1.92;;;18.10;60.00;;;;;;2345409;57;21053;-75
2022/07/05 01:04:27;;;;;;;3.75;2.22;;;18.10;60.10;;;;;;2346020;57;21141;-75
2022/07/05 01:06:56;;;;;;;4.07;1.90;;;18.10;60.10;;;;;;2345725;57;21528;-75
2022/07/05 01:09:24;;;;;;;6.07;2.08;;;18.10;60.00;;;;;;2344869;57;21581;-75
2022/07/05 01:11:54;;;;;;;4.75;1.80;;;18.10;60.20;;;;;;2346020;57;21117;-75
2022/07/05 01:14:23;;;;;;;5.62;1.90;;;18.00;60.20;;;;;;2345525;57;21227;-74
2022/07/05 01:16:51;;;;;;;5.82;1.70;;;18.00;60.40;;;;;;2346744;57;22174;-75
2022/07/05 01:19:21;;;;;;;2.55;1.80;;;18.00;60.40;;;;;;2347380;57;21097;-74
2022/07/05 01:21:50;;;;;;;1.83;1.67;;;17.90;60.40;;;;;;2346806;57;21536;-74
2022/07/05 01:24:18;;;;;;;2.17;1.80;;;17.90;60.60;;;;;;2347249;57;21053;-74
2022/07/05 01:26:48;;;;;;;3.28;2.00;;;17.90;60.70;;;;;;2347248;57;21069;-74
2022/07/05 01:29:16;;;;;;;2.15;1.85;;;17.90;61.00;;;;;;2347278;57;21061;-74
2022/07/05 01:31:44;;;;;;;2.45;1.87;;;17.80;60.90;;;;;;2347323;57;21532;-74
2022/07/05 01:34:12;;;;;;;7.97;2.20;;;17.90;61.20;;;;;;2346506;57;21311;-74
2022/07/05 01:36:40;;;;;;;3.78;1.85;;;17.80;61.40;;;;;;2344403;57;21051;-74
2022/07/05 01:39:08;;;;;;;3.95;2.03;;;17.80;61.50;;;;;;2346410;57;21132;-74
2022/07/05 01:41:36;;;;;;;7.65;2.80;;;17.70;61.60;;;;;;2346923;57;21038;-74
2022/07/05 01:44:04;;;;;;;3.20;1.98;;;17.70;61.50;;;;;;2347078;57;21085;-75
2022/07/05 01:46:33;;;;;;;4.47;2.25;;;17.70;61.60;;;;;;2346531;57;21595;-74
2022/07/05 01:49:05;;;;;;;3.53;2.17;;;17.70;61.70;;;;;;2346998;57;21109;-74
2022/07/05 01:51:38;;;;;;;5.87;2.40;;;17.60;61.80;;;;;;2347631;57;21168;-74
2022/07/05 01:54:06;;;;;;;2.45;1.92;;;17.70;61.90;;;;;;2346979;57;21532;-74
2022/07/05 01:56:33;;;;;;;4.85;2.10;;;17.60;61.90;;;;;;2346979;57;21116;-74
2022/07/05 01:59:01;;;;;;;4.00;2.20;;;17.60;62.30;;;;;;2593883;52;21125;-74
2022/07/05 02:01:36;;;;;;;4.60;2.20;;;17.60;62.20;;;;;;2347451;57;21109;-74
2022/07/05 02:04:05;;;;;;;3.00;1.95;;;17.60;62.20;;;;;;2347468;57;21531;-74
2022/07/05 02:06:33;;;;;;;4.68;2.20;;;17.60;62.10;;;;;;2346610;57;21046;-74
2022/07/05 02:09:03;;;;;;;5.15;2.10;;;17.50;62.30;;;;;;2347402;57;21811;-74
2022/07/05 02:11:30;;;;;;;4.22;1.95;;;17.50;62.40;;;;;;2347702;57;21547;-74
2022/07/05 02:16:34;;;;;;;4.62;2.00;;;17.50;62.60;;;;;;2325854;57;23200;-74
2022/07/05 02:19:01;;;;;;;3.03;2.05;;;17.50;62.60;;;;;;2321193;57;21115;-74
2022/07/05 02:21:29;;;;;;;3.17;2.22;;;17.50;62.60;;;;;;2344142;57;21113;-74
2022/07/05 02:23:56;;;;;;;4.37;2.37;;;17.40;62.70;;;;;;2345380;57;21307;-74
2022/07/05 02:26:24;;;;;;;3.10;2.00;;;17.50;62.80;;;;;;2345459;57;21065;-74
2022/07/05 02:28:51;;;;;;;4.28;2.15;;;17.40;62.80;;;;;;2345621;57;21057;-74
2022/07/05 02:31:20;;;;;;;6.37;2.28;;;17.40;63.10;;;;;;2345617;57;21305;-74
2022/07/05 02:33:47;;;;;;;4.47;2.35;;;17.40;63.10;;;;;;2345842;57;21140;-74
2022/07/05 02:36:15;;;;;;;3.92;2.33;;;17.30;62.90;;;;;;2344925;57;21049;-74
2022/07/05 02:38:42;;;;;;;4.80;2.72;;;17.30;63.10;;;;;;2346126;57;21172;-74
2022/07/05 02:41:11;;;;;;;5.78;2.37;;;17.30;63.40;;;;;;2345920;57;21117;-74
2022/07/05 02:43:40;;;;;;;3.78;2.30;;;17.30;63.60;;;;;;2345889;57;21576;-74
2022/07/05 02:46:09;;;;;;;3.87;2.65;;;17.30;63.50;;;;;;2345343;57;21030;-74
2022/07/05 02:48:37;;;;;;;7.45;2.70;;;17.30;63.50;;;;;;2345502;57;21525;-74
2022/07/05 02:51:06;;;;;;;2.05;1.85;;;17.30;63.40;;;;;;2345358;57;21061;-74
2022/07/05 02:53:34;;;;;;;7.37;2.40;;;17.20;64.20;;;;;;2345881;57;21169;-74
2022/07/05 02:56:02;;;;;;;4.45;2.28;;;17.20;63.40;;;;;;2345323;57;21587;-74
2022/07/05 02:58:30;;;;;;;2.92;2.33;;;17.20;63.50;;;;;;2345786;57;21540;-74
2022/07/05 03:00:57;;;;;;;6.15;2.53;;;17.20;63.60;;;;;;2345840;57;21707;-74
2022/07/05 03:03:25;;;;;;;5.30;2.37;;;17.20;63.60;;;;;;2345649;57;21050;-74
2022/07/05 03:05:52;;;;;;;9.13;2.75;;;17.10;63.60;;;;;;2345000;57;21077;-74
2022/07/05 03:08:20;;;;;;;5.20;2.60;;;17.10;63.60;;;;;;2345417;57;21062;-74
2022/07/05 03:10:48;;;;;;;6.97;2.45;;;17.10;63.70;;;;;;2345734;57;21038;-74
2022/07/05 03:13:15;;;;;;;5.45;2.50;;;17.10;63.70;;;;;;2345831;57;21069;-74
2022/07/05 03:15:43;;;;;;;6.37;2.30;;;17.10;64.00;;;;;;2335988;57;21090;-74
2022/07/05 03:18:10;;;;;;;4.32;2.20;;;17.10;64.10;;;;;;2327028;57;22196;-74
2022/07/05 03:20:38;;;;;;;4.65;2.72;;;17.10;64.20;;;;;;2326990;57;21038;-74
2022/07/05 03:23:05;;;;;;;4.95;3.08;;;17.00;64.20;;;;;;2327207;57;21030;-74
2022/07/05 03:25:33;;;;;;;4.05;2.35;;;17.10;64.40;;;;;;2326168;57;21062;-74
2022/07/05 03:28:00;;;;;;;4.60;2.70;;;17.00;64.40;;;;;;2325823;58;21588;-74
2022/07/05 03:30:28;;;;;;;4.62;2.50;;;17.00;64.60;;;;;;2326228;58;21545;-74
2022/07/05 03:32:55;;;;;;;5.53;2.58;;;17.00;64.40;;;;;;2325840;58;21058;-74
2022/07/05 03:35:23;;;;;;;4.57;2.20;;;17.00;64.50;;;;;;2325586;58;21132;-74
2022/07/05 03:37:50;;;;;;;5.20;2.53;;;17.00;64.60;;;;;;2325944;58;21038;-74
2022/07/05 03:40:18;;;;;;;4.78;2.50;;;17.00;64.60;;;;;;2326636;58;21119;-74
2022/07/05 03:42:45;;;;;;;5.15;2.83;;;17.00;64.80;;;;;;2326636;58;21113;-74
2022/07/05 03:45:13;;;;;;;3.25;2.40;;;17.00;64.70;;;;;;2326249;58;21134;-74
2022/07/05 03:47:40;;;;;;;5.57;2.50;;;17.00;64.80;;;;;;2326287;58;21604;-74
2022/07/05 03:50:09;;;;;;;4.12;2.42;;;17.00;64.80;;;;;;2568883;54;22250;-74
2022/07/05 03:52:36;;;;;;;5.37;2.90;;;17.00;65.00;;;;;;2326506;58;21178;-74
2022/07/05 03:55:05;;;;;;;3.53;2.50;;;17.00;64.80;;;;;;2325626;58;21045;-74
2022/07/05 03:57:33;;;;;;;5.32;2.55;;;17.00;65.00;;;;;;2325771;58;21541;-74
2022/07/05 04:00:00;;;;;;;8.52;3.05;;;17.00;65.20;;;;;;2324591;58;21121;-74
2022/07/05 04:02:27;;;;;;;7.35;2.67;;;17.00;65.40;;;;;;2324506;58;21129;-74
2022/07/05 04:04:55;;;;;;;6.70;2.92;;;17.00;65.40;;;;;;2325174;58;21540;-74
2022/07/05 04:07:22;;;;;;;3.92;2.47;;;16.90;65.60;;;;;;2326132;58;21047;-74
2022/07/05 04:09:50;;;;;;;7.45;2.80;;;17.00;65.90;;;;;;2326565;58;21034;-74
2022/07/05 04:12:17;;;;;;;4.40;2.72;;;17.00;66.00;;;;;;2326169;58;21064;-74
2022/07/05 04:14:45;;;;;;;6.22;2.67;;;16.90;65.90;;;;;;2326190;58;21042;-74
2022/07/05 04:17:12;;;;;;;5.00;3.10;;;17.00;66.00;;;;;;2326101;58;21193;-74
2022/07/05 04:19:40;;;;;;;4.43;2.60;;;17.00;66.10;;;;;;2340295;53;21106;-75
2022/07/05 04:22:07;;;;;;;6.60;2.80;;;17.00;66.10;;;;;;2268509;59;21067;-74
2022/07/05 04:25:16;;;;;;;4.05;2.80;;;17.00;66.10;;;;;;2266587;59;21070;-75
2022/07/05 04:27:44;;;;;;;4.12;2.55;;;17.00;66.10;;;;;;2266732;59;21070;-75
2022/07/05 04:30:13;;;;;;;4.70;3.08;;;17.10;65.80;;;;;;2390922;55;21162;-75
2022/07/05 04:32:41;;;;;;;8.38;3.15;;;17.00;65.70;;;;;;2267725;59;21075;-75
2022/07/05 04:35:09;;;;;;;3.78;2.80;;;17.10;65.80;;;;;;2324103;55;21094;-75
2022/07/05 04:37:37;;;;;;;4.80;3.05;;;17.10;66.20;;;;;;2267082;59;21110;-75
2022/07/05 04:40:08;;;;;;;5.75;2.92;;;17.10;66.20;;;;;;2267409;59;21070;-75
2022/07/05 04:42:35;;;;;;;4.10;2.92;;;17.10;66.20;;;;;;2267525;59;21082;-75
2022/07/05 04:45:03;;;;;;;2.70;2.50;;;17.10;66.70;;;;;;2271670;55;21151;-74
2022/07/05 04:47:31;;;;;;;6.20;2.90;;;17.10;66.70;;;;;;2266571;59;21174;-72
2022/07/05 04:49:59;;;;;;;5.20;3.33;;;17.10;66.60;;;;;;2266951;59;21138;-73
2022/07/05 04:52:27;;;;;;;5.72;3.20;;;17.10;66.90;;;;;;2266767;59;21078;-73
2022/07/05 04:54:54;;;;;;;4.82;3.00;;;17.10;67.00;;;;;;2267105;59;21420;-73
2022/07/05 04:57:22;;;;;;;3.95;3.08;;;17.20;66.60;;;;;;2267352;59;21146;-73
2022/07/05 04:59:49;;;;;;;3.72;2.67;;;17.20;66.50;;;;;;2266728;59;21624;-73
2022/07/05 05:02:17;;;;;;;5.55;2.47;;;17.20;66.80;;;;;;2267189;59;21082;-75
2022/07/05 05:04:44;;;;;;;5.43;2.60;;;17.20;66.90;;;;;;2266949;59;21342;-75
2022/07/05 05:07:12;;;;;;;9.25;3.30;;;17.20;66.80;;;;;;2420784;55;21075;-73
2022/07/05 05:09:40;;;;;;;4.40;2.53;;;17.20;66.90;;;;;;2267945;59;21070;-73
2022/07/05 05:12:09;;;;;;;8.38;3.05;;;17.30;66.70;;;;;;2332697;55;21647;-75
2022/07/05 05:14:36;;;;;;;4.03;2.47;;;17.30;66.80;;;;;;2267554;59;21074;-74
2022/07/05 05:17:04;;;;;;;4.97;2.30;;;17.30;67.30;;;;;;2267743;59;21150;-75
2022/07/05 05:19:32;;;;;;;6.18;2.35;;;17.30;67.60;;;;;;2267333;59;21082;-75
2022/07/05 05:21:59;;;;;;;4.40;2.25;;;17.40;67.90;;;;;;2270456;55;21078;-76
2022/07/05 05:24:27;;;;;;;4.50;2.30;;;17.40;67.10;;;;;;2265406;59;21074;-76
2022/07/05 05:26:54;;;;;;;5.15;2.12;;;17.50;66.40;;;;;;2265718;59;21067;-76
2022/07/05 05:29:22;;;;;;;4.20;2.10;;;17.60;66.80;;;;;;2267698;59;21090;-75
2022/07/05 05:31:49;;;;;;;4.03;1.77;;;17.60;66.80;;;;;;2272066;55;21139;-76
2022/07/05 05:34:17;;;;;;;5.70;1.95;;;17.70;66.80;;;;;;2268295;59;21123;-76
2022/07/05 05:36:44;;;;;;;4.07;1.75;;;17.70;66.60;;;;;;2268347;59;21098;-76
2022/07/05 05:39:12;;;;;;;5.62;2.00;;;17.80;66.00;;;;;;2268739;57;21071;-76
2022/07/05 05:41:39;;;;;;;5.57;1.67;;;17.90;65.70;;;;;;2268404;59;21066;-76
2022/07/05 05:44:07;;;;;;;5.43;2.00;;;17.90;65.90;;;;;;2305814;55;21125;-75
2022/07/05 05:46:34;;;;;;;4.35;1.85;;;18.00;66.10;;;;;;2268213;59;21087;-75
2022/07/05 05:51:38;;;;;;;5.37;2.00;;;18.10;65.40;;;;;;2327208;57;22642;-73
2022/07/05 05:54:06;;;;;;;2.50;2.00;;;18.20;65.00;;;;;;2349174;54;21058;-73
2022/07/05 05:56:33;;;;;;;3.25;1.80;;;18.20;64.10;;;;;;2318935;58;21124;-73
2022/07/05 05:59:01;;;;;;;7.30;2.10;;;18.30;64.10;;;;;;2321123;57;21172;-73
2022/07/05 06:01:28;;;;;;;3.55;1.85;;;18.30;64.00;;;;;;2360527;53;21121;-72
2022/07/05 06:03:56;;;;;;;2.33;1.58;;;18.30;64.40;;;;;;2345791;57;22194;-73
2022/07/05 06:06:23;;;;;;;3.85;1.80;;;18.30;64.20;;;;;;2344955;57;21130;-73
2022/07/05 06:08:51;;;;;;;2.90;1.73;;;18.40;63.70;;;;;;2345912;57;21061;-73
2022/07/05 06:11:18;;;;;;;3.25;1.50;;;18.40;63.90;;;;;;2345937;57;21144;-73
2022/07/05 06:13:46;;;;;;;4.35;1.62;;;18.40;63.70;;;;;;2346299;57;21089;-73
2022/07/05 06:16:13;;;;;;;3.87;1.95;;;18.50;63.90;;;;;;2345491;57;22260;-73
2022/07/05 06:18:41;;;;;;;5.12;1.75;;;18.60;63.50;;;;;;2345904;57;21038;-73
2022/07/05 06:21:08;;;;;;;2.37;1.30;;;18.60;63.30;;;;;;2345962;57;21110;-73
2022/07/05 06:23:36;;;;;;;1.92;1.48;;;18.70;63.30;;;;;;2345915;57;21578;-76
2022/07/05 06:26:03;;;;;;;5.15;1.40;;;18.70;62.40;;;;;;2345436;57;21096;-76
2022/07/05 06:28:32;;;;;;;5.60;1.30;;;18.80;61.70;;;;;;2346012;57;21034;-76
2022/07/05 06:31:00;;;;;;;6.32;1.73;;;18.90;61.40;;;;;;2346287;57;21062;-76
2022/07/05 06:33:28;;;;;;;3.87;1.70;;;18.90;61.20;;;;;;2346313;57;21033;-76
2022/07/05 06:35:55;;;;;;;3.10;1.60;;;19.00;61.80;;;;;;2345925;57;21050;-75
2022/07/05 06:38:22;;;;;;;3.47;1.33;;;19.00;61.30;;;;;;2345904;57;21551;-76
2022/07/05 06:40:50;;;;;;;2.08;1.40;;;19.00;61.50;;;;;;2346090;57;21379;-76
2022/07/05 06:43:17;;;;;;;3.40;1.08;;;19.10;61.10;;;;;;2346163;57;21109;-76
2022/07/05 06:45:45;;;;;;;4.20;1.30;;;19.20;61.40;;;;;;2345537;57;21041;-76
2022/07/05 06:48:13;;;;;;;2.62;1.35;;;19.20;61.20;;;;;;2346093;57;22116;-76
2022/07/05 06:50:42;;;;;;;3.22;1.20;;;19.30;60.60;;;;;;2346111;57;21065;-73
2022/07/05 06:53:10;;;;;;;4.03;1.33;;;19.40;60.40;;;;;;2345576;57;21486;-73
2022/07/05 06:55:37;;;;;;;2.92;1.27;;;19.50;59.90;;;;;;2345888;57;21721;-73
2022/07/05 06:58:07;;;;;;;5.60;1.20;;;19.60;59.50;;;;;;2346060;57;21635;-73
2022/07/05 07:00:35;;;;;;;1.45;0.80;;;19.60;59.60;;;;;;2346366;57;21116;-73
2022/07/05 07:03:02;;;;;;;3.50;1.10;;;19.70;59.50;;;;;;2344836;57;21074;-73
2022/07/05 07:05:30;;;;;;;2.42;1.60;;;19.80;59.10;;;;;;2344692;57;21120;-73
2022/07/05 07:10:43;;;;;;;2.83;1.12;;;19.90;58.70;;;;;;2358226;53;21038;-73
2022/07/05 07:13:10;;;;;;;6.22;1.23;;;20.00;58.30;;;;;;2344061;57;21120;-73
2022/07/05 07:15:38;;;;;;;1.50;1.10;;;20.00;58.50;;;;;;2344961;57;21081;-73
2022/07/05 07:18:06;;;;;;;2.85;1.27;;;20.00;57.70;;;;;;2345277;57;21037;-73
2022/07/05 07:20:33;;;;;;;4.22;1.08;;;20.10;57.70;;;;;;2345063;57;21149;-74
2022/07/05 07:23:01;;;;;;;1.75;1.08;;;20.10;57.60;;;;;;2344944;57;21136;-73
2022/07/05 07:25:28;;;;;;;4.15;1.20;;;20.20;57.90;;;;;;2344737;57;21524;-73
2022/07/05 07:27:56;;;;;;;3.28;1.45;;;20.20;57.40;;;;;;2343980;57;21057;-73
2022/07/05 07:30:25;;;;;;;7.65;1.37;;;20.20;56.80;;;;;;2343996;57;21552;-73
2022/07/05 07:32:53;;;;;;;3.85;1.00;;;20.20;56.60;;;;;;2345356;57;21058;-73
2022/07/05 07:35:21;;;;;;;4.87;1.40;;;20.20;56.60;;;;;;2344785;57;21046;-73
2022/07/05 07:37:49;;;;;;;2.55;1.23;;;20.20;56.40;;;;;;2343843;57;21042;-73
2022/07/05 07:40:17;;;;;;;4.70;1.77;;;20.20;56.80;;;;;;2344703;57;21057;-73
2022/07/05 07:42:45;;;;;;;5.03;1.67;;;20.10;56.90;;;;;;2378946;53;21057;-73
2022/07/05 07:45:12;;;;;;;3.70;1.12;;;20.10;56.80;;;;;;2344938;57;21062;-73
2022/07/05 07:47:40;;;;;;;2.87;1.15;;;20.10;56.70;;;;;;2344875;57;21042;-73
2022/07/05 07:50:08;;;;;;;5.25;1.35;;;20.10;56.70;;;;;;2345119;57;21113;-73
2022/07/05 07:52:37;;;;;;;4.57;1.73;;;20.10;56.90;;;;;;2344483;57;21599;-73
2022/07/05 07:55:07;;;;;;;4.30;1.23;;;20.10;56.20;;;;;;2591712;53;21061;-73
2022/07/05 07:57:35;;;;;;;5.40;1.40;;;20.10;56.60;;;;;;2345043;57;21057;-73
2022/07/05 08:00:03;;;;;;;2.22;1.00;;;20.10;56.10;;;;;;2344942;57;21050;-73
2022/07/05 08:02:31;;;;;;;1.42;0.80;;;20.10;55.90;;;;;;2345169;57;21580;-74
2022/07/05 08:04:58;;;;;;;2.40;0.98;;;20.00;55.30;;;;;;2344957;57;21113;-74
2022/07/05 08:07:26;;;;;;;5.15;1.10;;;20.10;54.80;;;;;;2344446;57;21583;-74
2022/07/05 08:09:53;;;;;;;3.05;1.00;;;20.10;55.50;;;;;;2345014;57;21121;-74
2022/07/05 08:12:21;;;;;;;2.03;0.85;;;20.10;55.00;;;;;;2344284;57;21128;-74
2022/07/05 08:14:48;;;;;;;1.87;0.88;;;20.20;54.60;;;;;;2344863;57;21575;-74
2022/07/05 08:17:16;;;;;;;4.47;1.10;;;20.20;54.30;;;;;;2383674;53;22186;-74
2022/07/05 08:22:30;;;;;;;0.80;0.60;;;20.20;52.60;;;;;;2345033;57;21077;-75
2022/07/05 08:24:57;;;;;;;1.50;0.95;;;20.10;52.50;;;;;;2344543;57;21703;-74
2022/07/05 08:27:25;;;;;;;2.80;0.88;;;20.10;53.20;;;;;;2570152;53;21600;-74
2022/07/05 08:29:52;;;;;;;2.92;1.00;;;20.10;52.90;;;;;;2344575;57;21870;-74
2022/07/05 08:32:20;;;;;;;3.10;0.85;;;20.10;52.90;;;;;;2344965;57;21192;-74
2022/07/05 08:34:48;;;;;;;2.00;0.80;;;20.20;52.50;;;;;;2344619;57;21057;-74
2022/07/05 08:37:15;;;;;;;1.65;0.65;;;20.20;51.30;;;;;;2343756;57;21687;-74
2022/07/05 08:39:43;;;;;;;1.95;0.60;;;20.20;51.30;;;;;;2479762;53;21200;-74
2022/07/05 08:42:11;;;;;;;1.08;0.62;;;20.30;48.60;;;;;;2365327;53;21639;-74
2022/07/05 08:44:42;;;;;;;0.88;0.50;;;20.30;48.00;;;;;;2344710;57;21046;-74
2022/07/05 08:47:11;;;;;;;1.77;0.70;;;20.40;47.20;;;;;;2344492;57;21604;-74
2022/07/05 08:49:40;;;;;;;1.17;0.73;;;20.50;47.40;;;;;;2344869;57;21125;-74
2022/07/05 08:52:12;;;;;;;1.15;0.50;;;20.50;46.90;;;;;;2331233;57;21055;-74
2022/07/05 08:54:40;;;;;;;3.00;0.75;;;20.60;46.80;;;;;;2325410;58;21047;-74
2022/07/05 08:57:08;;;;;;;2.33;0.50;;;20.60;46.70;;;;;;2326335;58;21046;-74
2022/07/05 08:59:36;;;;;;;0.70;0.60;;;20.70;46.90;;;;;;2326341;58;21049;-74
2022/07/05 09:02:05;;;;;;;1.33;0.60;;;20.80;46.30;;;;;;2326310;58;21125;-74
2022/07/05 09:04:37;;;;;;;2.80;0.70;;;20.80;46.00;;;;;;2326224;58;21054;-74
2022/07/05 09:07:07;;;;;;;2.03;0.70;;;20.90;46.40;;;;;;2325983;58;21651;-74
2022/07/05 09:09:38;;;;;;;1.05;0.65;;;20.90;46.70;;;;;;2326479;58;21102;-74
2022/07/05 09:12:08;;;;;;;3.17;0.82;;;20.90;46.80;;;;;;2540578;54;21126;-74
2022/07/05 09:14:35;;;;;;;2.62;0.73;;;20.90;46.90;;;;;;2413359;54;21054;-74
2022/07/05 09:17:04;;;;;;;2.75;0.80;;;21.00;46.90;;;;;;2326220;58;21630;-74
2022/07/05 09:19:32;;;;;;;0.73;0.50;;;21.00;46.50;;;;;;2326420;58;21114;-74
2022/07/05 09:22:04;;;;;;;1.50;0.50;;;21.10;46.20;;;;;;2326038;58;21090;-74
2022/07/05 09:24:32;;;;;;;1.17;0.80;;;21.20;45.10;;;;;;2326512;58;21085;-74
2022/07/05 09:27:06;;;;;;;2.62;0.80;;;21.30;45.70;;;;;;2326319;58;21045;-73
2022/07/05 09:29:34;;;;;;;1.42;0.60;;;21.30;43.50;;;;;;2325535;58;21042;-74
2022/07/05 09:32:01;;;;;;;0.88;0.62;;;21.30;43.60;;;;;;2326273;58;21635;-74
2022/07/05 09:34:30;;;;;;;2.35;0.60;;;21.30;44.20;;;;;;2325937;58;21047;-74
2022/07/05 09:37:01;;;;;;;1.20;0.50;;;21.40;44.80;;;;;;2325996;58;21117;-74
2022/07/05 09:39:40;;;;;;;0.60;0.60;;;21.50;44.50;;;;;;2326717;58;21058;-74
2022/07/05 09:42:19;;;;;;;1.30;0.60;;;21.60;45.30;;;;;;2326536;58;22092;-74
2022/07/05 09:44:49;;;;;;;1.17;0.75;;;21.60;45.00;;;;;;2326648;58;21117;-74
2022/07/05 09:47:19;;;;;;;2.15;0.70;;;21.60;45.50;;;;;;2326149;58;21521;-74
2022/07/05 09:49:48;;;;;;;2.05;0.62;;;21.60;45.30;;;;;;2326191;58;21066;-74
2022/07/05 09:52:30;;;;;;;3.15;0.70;;;21.60;45.70;;;;;;2326045;58;21142;-74
2022/07/05 09:55:06;;;;;;;1.37;0.70;;;21.60;45.60;;;;;;2326402;58;21046;-74
2022/07/05 09:57:35;;;;;;;1.08;0.52;;;21.60;45.70;;;;;;2326734;58;21097;-74
2022/07/05 10:00:07;;;;;;;0.95;0.75;;;21.70;45.50;;;;;;2326130;58;21532;-74
2022/07/05 10:02:39;;;;;;;1.90;1.10;;;21.70;45.60;;;;;;2326660;58;21039;-74
2022/07/05 10:05:11;;;;;;;0.90;0.73;;;21.70;45.10;;;;;;2325974;58;21042;-74
2022/07/05 10:07:40;;;;;;;2.20;0.70;;;21.70;45.20;;;;;;2326489;58;21054;-74
2022/07/05 10:10:09;;;;;;;0.65;0.65;;;21.70;44.40;;;;;;2326306;58;21070;-74
2022/07/05 10:12:39;;;;;;;0.52;0.47;;;21.60;44.60;;;;;;2326797;58;21042;-74
2022/07/05 10:15:10;;;;;;;2.17;0.62;;;21.60;45.40;;;;;;2326645;58;21126;-74
2022/07/05 10:17:41;;;;;;;1.77;0.62;;;21.60;44.90;;;;;;2325872;58;21106;-74
2022/07/05 10:20:16;;;;;;;3.35;0.65;;;21.60;44.40;;;;;;2353508;53;69697;-82
2022/07/05 10:22:44;;;;;;;1.58;0.70;;;21.50;44.60;;;;;;2278682;59;21451;-84
2022/07/05 10:25:12;;;;;;;4.65;0.95;;;21.50;45.40;;;;;;2278679;59;21064;-84
2022/07/05 10:27:40;;;;;;;0.55;0.40;;;21.50;45.80;;;;;;2278256;59;21097;-84
2022/07/05 10:30:10;;;;;;;2.87;0.80;;;21.50;45.60;;;;;;2510437;54;21067;-84
2022/07/05 10:32:40;;;;;;;2.08;0.70;;;21.60;45.90;;;;;;2510186;54;21067;-85
2022/07/05 10:35:09;;;;;;;2.67;0.70;;;21.70;45.80;;;;;;2510626;55;21091;-86
2022/07/05 10:37:37;;;;;;;0.95;0.60;;;21.70;44.70;;;;;;2422446;53;70706;-74
2022/07/05 10:40:07;;;;;;;2.17;0.55;;;21.80;44.00;;;;;;2212044;60;21203;-74
2022/07/05 10:42:39;;;;;;;2.28;0.68;;;21.80;43.40;;;;;;2223869;60;21077;-74
2022/07/05 10:45:27;;;;;;;3.20;0.60;;;21.80;42.70;;;;;;2222955;60;21570;-74
2022/07/05 10:48:13;;;;;;;1.48;0.60;;;21.80;43.20;;;;;;2223691;60;21161;-73
2022/07/05 10:50:50;;;;;;;2.78;0.52;;;21.80;43.50;;;;;;2223957;60;21072;-73
2022/07/05 10:53:19;;;;;;;3.22;0.70;;;21.90;43.90;;;;;;2223978;60;21148;-73
2022/07/05 10:55:55;;;;;;;5.93;0.95;;;21.90;44.10;;;;;;2223747;60;21163;-73
2022/07/05 10:58:28;;;;;;;0.95;0.60;;;22.00;44.00;;;;;;2224070;60;21064;-73
2022/07/05 11:01:33;;;;;;;0.85;0.60;;;22.10;42.20;;;;;;2223215;60;21582;-71
2022/07/05 11:04:33;;;;;;;0.55;0.50;;;22.20;42.00;;;;;;2223132;60;21726;-73
2022/07/05 11:07:01;;;;;;;1.35;0.40;;;22.30;43.00;;;;;;2223586;60;21163;-72
2022/07/05 11:09:29;;;;;;;0.73;0.60;;;22.40;42.80;;;;;;2224222;60;21403;-73
2022/07/05 11:12:08;;;;;;;2.58;0.60;;;22.50;42.90;;;;;;2223880;60;21092;-72
2022/07/05 11:14:37;;;;;;;1.12;0.50;;;22.70;41.90;;;;;;2224059;60;21155;-73
2022/07/05 11:17:22;;;;;;;0.98;0.47;;;22.70;41.40;;;;;;2222754;60;22191;-72
2022/07/05 11:20:14;;;;;;;1.75;0.65;;;22.80;41.50;;;;;;2223880;60;21081;-73
2022/07/05 11:23:01;;;;;;;0.70;0.50;;;22.80;41.60;;;;;;2223754;60;21116;-73
2022/07/05 11:25:30;;;;;;;2.80;0.52;;;22.80;41.60;;;;;;2223517;60;21615;-73
2022/07/05 11:28:05;;;;;;;1.85;0.50;;;22.90;41.60;;;;;;2444614;56;21151;-72
2022/07/05 11:30:49;;;;;;;2.30;0.60;;;23.00;40.90;;;;;;2223527;60;21566;-74
2022/07/05 11:33:50;;;;;;;1.62;0.73;;;23.10;41.20;;;;;;2223796;60;21084;-72
2022/07/05 11:36:25;;;;;;;1.42;0.70;;;23.00;40.70;;;;;;2223316;60;21088;-73
2022/07/05 11:39:15;;;;;;;1.90;0.60;;;22.90;40.70;;;;;;2223820;60;21071;-73
2022/07/05 11:41:45;;;;;;;0.77;0.40;;;22.90;41.10;;;;;;2223981;60;21069;-72
2022/07/05 11:44:13;;;;;;;2.03;0.40;;;22.90;40.70;;;;;;2224020;60;21088;-73
2022/07/05 11:46:41;;;;;;;2.08;0.50;;;22.90;40.70;;;;;;2223011;60;21630;-74
2022/07/05 11:49:09;;;;;;;1.65;0.40;;;23.10;41.20;;;;;;2223876;60;21068;-73
2022/07/05 11:51:36;;;;;;;1.40;0.60;;;23.20;41.30;;;;;;2223742;60;21068;-73
2022/07/05 11:54:09;;;;;;;1.60;0.50;;;23.40;41.10;;;;;;2223776;60;21108;-74
2022/07/05 11:56:36;;;;;;;1.65;0.43;;;23.50;39.70;;;;;;2444485;56;21563;-73
2022/07/05 11:59:17;;;;;;;2.37;0.50;;;23.70;40.40;;;;;;2223469;60;21346;-72
2022/07/05 12:01:45;;;;;;;3.37;0.98;;;23.70;40.40;;;;;;2223376;60;21079;-73
2022/07/05 12:04:20;;;;;;;8.35;1.00;;;23.90;40.00;;;;;;2223839;60;21064;-74
2022/07/05 12:06:48;;;;;;;2.15;0.60;;;24.00;40.20;;;;;;2223567;60;21141;-74
2022/07/05 12:09:22;;;;;;;0.60;0.50;;;24.10;39.80;;;;;;2223982;60;21066;-73
2022/07/05 12:14:46;;;;;;;1.65;0.65;;;24.30;39.00;;;;;;2223766;60;21100;-72
2022/07/05 12:17:15;;;;;;;3.28;0.50;;;24.30;39.70;;;;;;2444617;56;21630;-73
2022/07/05 12:19:44;;;;;;;2.30;0.75;;;24.30;39.20;;;;;;2223177;60;21108;-72
2022/07/05 12:22:12;;;;;;;1.40;0.75;;;24.30;39.40;;;;;;2223844;60;21585;-73
2022/07/05 12:24:40;;;;;;;0.82;0.50;;;24.50;38.50;;;;;;2224130;60;21095;-72
2022/07/05 12:27:11;;;;;;;0.93;0.40;;;24.50;38.00;;;;;;2223778;60;21575;-73
2022/07/05 12:29:39;;;;;;;2.72;0.80;;;24.40;38.90;;;;;;2223517;60;21084;-73
2022/07/05 12:32:08;;;;;;;2.17;0.50;;;24.50;39.00;;;;;;2223035;60;21550;-72
2022/07/05 12:34:36;;;;;;;2.67;0.90;;;24.50;39.80;;;;;;2223754;60;21189;-72
2022/07/05 12:37:05;;;;;;;1.80;0.62;;;24.70;38.90;;;;;;2223584;60;21235;-73
2022/07/05 12:39:33;;;;;;;3.20;1.08;;;24.80;39.40;;;;;;2223833;60;21156;-73
2022/07/05 12:42:00;;;;;;;1.27;0.60;;;24.90;39.40;;;;;;2223719;60;21145;-73
2022/07/05 12:44:28;;;;;;;0.98;0.40;;;25.10;39.90;;;;;;2223141;60;21133;-74
2022/07/05 12:47:04;;;;;;;0.45;0.45;;;25.30;40.10;;;;;;2443800;56;21145;-72
2022/07/05 12:49:52;;;;;;;2.03;0.73;;;25.30;38.30;;;;;;2223984;60;21073;-74
2022/07/05 12:52:20;;;;;;;3.50;0.62;;;25.30;37.00;;;;;;2223582;60;21068;-73
2022/07/05 12:58:04;;;;;;;2.83;0.62;;;25.30;38.40;;;;;;2223688;60;21530;-73
2022/07/05 13:00:32;;;;;;;0.73;0.37;;;25.30;38.30;;;;;;2223653;60;21160;-74
2022/07/05 13:02:59;;;;;;;1.40;0.50;;;25.30;38.20;;;;;;2223868;60;21124;-74
2022/07/05 13:05:27;;;;;;;1.67;0.60;;;25.30;38.50;;;;;;2223113;60;21139;-74
2022/07/05 13:07:55;;;;;;;1.80;0.80;;;25.30;37.80;;;;;;2223893;60;21096;-73
2022/07/05 13:10:23;;;;;;;4.30;0.73;;;25.40;37.60;;;;;;2223271;60;21646;-73
2022/07/05 13:12:52;;;;;;;1.12;0.52;;;25.40;37.20;;;;;;2224056;60;21080;-73
2022/07/05 13:15:20;;;;;;;1.52;0.52;;;25.30;38.00;;;;;;2223332;60;21167;-73